createdAt,value
2016-12-10T00:00:36.369Z,0
2016-12-10T00:01:36.391Z,0
2016-12-10T00:02:36.107Z,0
2016-12-10T00:03:36.105Z,0
2016-12-10T00:04:36.440Z,0
2016-12-10T00:05:36.141Z,0
2016-12-10T00:06:36.177Z,0
2016-12-10T00:07:36.485Z,0
2016-12-10T00:08:36.498Z,0
2016-12-10T00:09:36.513Z,0
2016-12-10T00:10:36.566Z,0
2016-12-10T00:11:36.863Z,0
2016-12-10T00:12:36.251Z,0
2016-12-10T00:13:36.582Z,0
2016-12-10T00:14:36.599Z,0
2016-12-10T00:15:36.298Z,0
2016-12-10T00:16:36.345Z,0
2016-12-10T00:17:36.647Z,0
2016-12-10T00:18:37.392Z,0
2016-12-10T00:19:38.991Z,0
2016-12-10T00:20:37.668Z,0
2016-12-10T00:21:38.979Z,0
2016-12-10T00:22:39.096Z,0
2016-12-10T00:23:40.416Z,0
2016-12-10T00:24:38.031Z,0
2016-12-10T00:25:36.477Z,0
2016-12-10T00:26:36.793Z,0
2016-12-10T00:27:36.204Z,0
2016-12-10T00:28:37.139Z,0
2016-12-10T00:29:36.544Z,0
2016-12-10T00:30:37.168Z,0
2016-12-10T00:31:37.189Z,0
2016-12-10T00:32:36.569Z,0
2016-12-10T00:33:36.897Z,0
2016-12-10T00:34:36.613Z,0
2016-12-10T00:35:37.294Z,0
2016-12-10T00:36:36.629Z,0
2016-12-10T00:37:36.658Z,0
2016-12-10T00:38:36.661Z,0
2016-12-10T00:39:36.996Z,0
2016-12-10T00:40:37.324Z,0
2016-12-10T00:41:36.714Z,0
2016-12-10T00:42:37.071Z,0
2016-12-10T00:43:37.056Z,0
2016-12-10T00:44:37.070Z,0
2016-12-10T00:45:37.094Z,0
2016-12-10T00:46:37.107Z,0
2016-12-10T00:47:37.440Z,0
2016-12-10T00:48:37.135Z,0
2016-12-10T00:49:37.157Z,0
2016-12-10T00:50:37.167Z,0
2016-12-10T00:51:36.867Z,0
2016-12-10T00:52:36.907Z,0
2016-12-10T00:53:36.898Z,0
2016-12-10T00:54:37.857Z,0
2016-12-10T00:55:37.282Z,0
2016-12-10T00:56:37.578Z,0
2016-12-10T00:57:36.650Z,0
2016-12-10T00:58:36.983Z,0
2016-12-10T00:59:37.343Z,0
2016-12-10T01:00:37.012Z,0
2016-12-10T01:01:37.031Z,0
2016-12-10T01:02:37.359Z,0
2016-12-10T01:03:37.375Z,0
2016-12-10T01:04:38.019Z,0
2016-12-10T01:05:37.087Z,0
2016-12-10T01:06:36.788Z,0
2016-12-10T01:07:37.434Z,0
2016-12-10T01:08:36.827Z,0
2016-12-10T01:09:38.100Z,0
2016-12-10T01:10:37.800Z,0
2016-12-10T01:11:37.821Z,0
2016-12-10T01:12:37.198Z,0
2016-12-10T01:13:37.846Z,0
2016-12-10T01:14:37.240Z,0
2016-12-10T01:15:37.252Z,0
2016-12-10T01:16:37.583Z,0
2016-12-10T01:17:37.591Z,0
2016-12-10T01:18:37.608Z,0
2016-12-10T01:19:37.518Z,0
2016-12-10T01:20:37.955Z,0
2016-12-10T01:21:37.028Z,0
2016-12-10T01:22:37.676Z,0
2016-12-10T01:23:37.689Z,0
2016-12-10T01:24:37.070Z,0
2016-12-10T01:25:37.716Z,0
2016-12-10T01:26:37.433Z,0
2016-12-10T01:27:38.073Z,0
2016-12-10T01:28:37.451Z,0
2016-12-10T01:29:37.463Z,0
2016-12-10T01:30:37.796Z,0
2016-12-10T01:31:37.808Z,0
2016-12-10T01:32:37.827Z,0
2016-12-10T01:33:37.522Z,0
2016-12-10T01:34:37.224Z,0
2016-12-10T01:35:38.190Z,0
2016-12-10T01:36:37.891Z,0
2016-12-10T01:37:37.268Z,0
2016-12-10T01:38:38.235Z,0
2016-12-10T01:39:37.626Z,0
2016-12-10T01:40:38.283Z,0
2016-12-10T01:41:38.306Z,0
2016-12-10T01:42:38.010Z,0
2016-12-10T01:43:37.993Z,0
2016-12-10T01:44:38.008Z,0
2016-12-10T01:45:38.042Z,0
2016-12-10T01:46:38.041Z,0
2016-12-10T01:47:38.376Z,0
2016-12-10T01:48:38.069Z,0
2016-12-10T01:49:38.088Z,0
2016-12-10T01:50:37.782Z,0
2016-12-10T01:51:38.120Z,0
2016-12-10T01:52:37.813Z,0
2016-12-10T01:53:38.459Z,0
2016-12-10T01:54:37.853Z,0
2016-12-10T01:55:37.548Z,0
2016-12-10T01:56:38.190Z,0
2016-12-10T01:57:37.886Z,0
2016-12-10T01:58:37.909Z,0
2016-12-10T01:59:37.605Z,0
2016-12-10T02:00:38.268Z,0
2016-12-10T02:01:37.950Z,0
2016-12-10T02:02:37.966Z,0
2016-12-10T02:03:38.297Z,0
2016-12-10T02:04:38.629Z,0
2016-12-10T02:05:38.040Z,0
2016-12-10T02:06:38.344Z,0
2016-12-10T02:07:38.360Z,0
2016-12-10T02:08:38.685Z,0
2016-12-10T02:09:38.077Z,0
2016-12-10T02:10:38.405Z,0
2016-12-10T02:11:38.102Z,0
2016-12-10T02:12:39.071Z,0
2016-12-10T02:13:38.127Z,0
2016-12-10T02:14:38.461Z,0
2016-12-10T02:15:38.157Z,0
2016-12-10T02:16:38.809Z,0
2016-12-10T02:17:38.524Z,0
2016-12-10T02:18:38.843Z,0
2016-12-10T02:19:38.584Z,0
2016-12-10T02:20:38.549Z,0
2016-12-10T02:21:38.564Z,0
2016-12-10T02:22:38.155Z,0
2016-12-10T02:23:38.911Z,0
2016-12-10T02:24:38.610Z,0
2016-12-10T02:25:38.630Z,0
2016-12-10T02:26:38.957Z,0
2016-12-10T02:27:38.660Z,0
2016-12-10T02:28:38.702Z,0
2016-12-10T02:29:38.689Z,0
2016-12-10T02:30:39.013Z,0
2016-12-10T02:31:38.717Z,0
2016-12-10T02:32:38.755Z,0
2016-12-10T02:33:38.432Z,0
2016-12-10T02:34:38.759Z,0
2016-12-10T02:35:38.774Z,0
2016-12-10T02:36:38.812Z,0
2016-12-10T02:37:38.803Z,0
2016-12-10T02:38:38.189Z,0
2016-12-10T02:39:38.913Z,0
2016-12-10T02:40:40.958Z,0
2016-12-10T02:41:40.123Z,0
2016-12-10T02:42:40.322Z,0
2016-12-10T02:43:39.822Z,0
2016-12-10T02:44:39.041Z,0
2016-12-10T02:45:40.389Z,0
2016-12-10T02:46:40.989Z,0
2016-12-10T02:47:39.918Z,0
2016-12-10T02:48:40.463Z,0
2016-12-10T02:49:39.616Z,0
2016-12-10T02:50:39.003Z,0
2016-12-10T02:51:38.385Z,0
2016-12-10T02:52:39.035Z,0
2016-12-10T02:53:39.367Z,0
2016-12-10T02:54:39.379Z,0
2016-12-10T02:55:38.787Z,0
2016-12-10T02:56:39.445Z,0
2016-12-10T02:57:39.747Z,0
2016-12-10T02:58:39.471Z,0
2016-12-10T02:59:38.954Z,0
2016-12-10T03:00:39.151Z,0
2016-12-10T03:01:39.512Z,0
2016-12-10T03:02:53.485Z,0
2016-12-10T03:03:39.661Z,0
2016-12-10T03:04:40.649Z,0
2016-12-10T03:05:41.511Z,0
2016-12-10T03:06:41.644Z,0
2016-12-10T03:07:40.632Z,0
2016-12-10T03:08:39.523Z,0
2016-12-10T03:09:40.066Z,0
2016-12-10T03:10:40.607Z,0
2016-12-10T03:11:40.083Z,0
2016-12-10T03:12:39.464Z,0
2016-12-10T03:13:41.366Z,0
2016-12-10T03:14:40.179Z,0
2016-12-10T03:15:40.560Z,0
2016-12-10T03:16:40.142Z,0
2016-12-10T03:17:40.567Z,0
2016-12-10T03:18:40.072Z,0
2016-12-10T03:19:41.007Z,0
2016-12-10T03:20:40.095Z,0
2016-12-10T03:21:40.819Z,0
2016-12-10T03:22:41.021Z,0
2016-12-10T03:23:40.566Z,0
2016-12-10T03:24:39.867Z,0
2016-12-10T03:25:40.242Z,0
2016-12-10T03:26:40.411Z,0
2016-12-10T03:27:40.481Z,0
2016-12-10T03:28:40.048Z,0
2016-12-10T03:29:40.434Z,0
2016-12-10T03:30:40.534Z,0
2016-12-10T03:31:41.199Z,0
2016-12-10T03:32:41.252Z,0
2016-12-10T03:33:41.695Z,0
2016-12-10T03:34:40.221Z,0
2016-12-10T03:35:40.531Z,0
2016-12-10T03:36:40.667Z,0
2016-12-10T03:37:40.525Z,0
2016-12-10T03:38:40.272Z,0
2016-12-10T03:39:39.409Z,0
2016-12-10T03:40:39.738Z,0
2016-12-10T03:41:39.757Z,0
2016-12-10T03:42:40.086Z,0
2016-12-10T03:43:39.467Z,0
2016-12-10T03:44:39.172Z,0
2016-12-10T03:45:39.817Z,0
2016-12-10T03:46:39.829Z,0
2016-12-10T03:47:39.528Z,0
2016-12-10T03:48:39.856Z,0
2016-12-10T03:49:39.586Z,0
2016-12-10T03:50:40.207Z,0
2016-12-10T03:51:39.590Z,0
2016-12-10T03:52:40.246Z,0
2016-12-10T03:53:39.949Z,0
2016-12-10T03:54:40.261Z,0
2016-12-10T03:55:39.968Z,0
2016-12-10T03:56:39.986Z,0
2016-12-10T03:57:40.626Z,0
2016-12-10T03:58:39.708Z,0
2016-12-10T03:59:39.722Z,0
2016-12-10T04:00:40.039Z,0
2016-12-10T04:01:40.368Z,0
2016-12-10T04:02:39.750Z,0
2016-12-10T04:03:40.414Z,0
2016-12-10T04:04:39.784Z,0
2016-12-10T04:05:40.741Z,0
2016-12-10T04:06:39.810Z,0
2016-12-10T04:07:40.465Z,0
2016-12-10T04:08:40.172Z,0
2016-12-10T04:09:39.542Z,0
2016-12-10T04:10:39.875Z,0
2016-12-10T04:11:40.519Z,0
2016-12-10T04:12:40.219Z,0
2016-12-10T04:13:40.000Z,0
2016-12-10T04:14:40.258Z,0
2016-12-10T04:15:40.259Z,0
2016-12-10T04:16:39.968Z,0
2016-12-10T04:17:40.001Z,0
2016-12-10T04:18:40.330Z,0
2016-12-10T04:19:39.699Z,0
2016-12-10T04:20:40.337Z,0
2016-12-10T04:21:40.356Z,0
2016-12-10T04:22:40.377Z,0
2016-12-10T04:23:40.389Z,0
2016-12-10T04:24:40.084Z,0
2016-12-10T04:25:40.422Z,0
2016-12-10T04:26:40.431Z,0
2016-12-10T04:27:40.131Z,0
2016-12-10T04:28:40.790Z,0
2016-12-10T04:29:40.500Z,0
2016-12-10T04:30:40.494Z,0
2016-12-10T04:31:40.645Z,0
2016-12-10T04:32:40.543Z,0
2016-12-10T04:33:40.865Z,0
2016-12-10T04:34:40.257Z,0
2016-12-10T04:35:40.254Z,0
2016-12-10T04:36:40.619Z,0
2016-12-10T04:37:40.909Z,0
2016-12-10T04:38:40.613Z,0
2016-12-10T04:39:40.627Z,0
2016-12-10T04:40:40.642Z,0
2016-12-10T04:41:40.656Z,0
2016-12-10T04:42:40.358Z,0
2016-12-10T04:43:41.010Z,0
2016-12-10T04:44:40.710Z,0
2016-12-10T04:45:41.034Z,0
2016-12-10T04:46:40.105Z,0
2016-12-10T04:47:40.435Z,0
2016-12-10T04:48:40.764Z,0
2016-12-10T04:49:40.784Z,0
2016-12-10T04:50:41.427Z,0
2016-12-10T04:51:40.812Z,0
2016-12-10T04:52:40.831Z,0
2016-12-10T04:53:41.160Z,0
2016-12-10T04:54:40.324Z,0
2016-12-10T04:55:40.878Z,0
2016-12-10T04:56:40.573Z,0
2016-12-10T04:57:41.220Z,0
2016-12-10T04:58:40.601Z,0
2016-12-10T04:59:40.615Z,0
2016-12-10T05:00:40.944Z,0
2016-12-10T05:01:41.295Z,0
2016-12-10T05:02:41.296Z,0
2016-12-10T05:03:41.311Z,0
2016-12-10T05:04:41.009Z,0
2016-12-10T05:05:40.713Z,0
2016-12-10T05:06:40.721Z,0
2016-12-10T05:07:40.740Z,0
2016-12-10T05:08:41.077Z,0
2016-12-10T05:09:40.776Z,0
2016-12-10T05:10:41.111Z,0
2016-12-10T05:11:41.432Z,0
2016-12-10T05:12:40.824Z,0
2016-12-10T05:13:40.520Z,0
2016-12-10T05:14:41.472Z,0
2016-12-10T05:15:41.817Z,0
2016-12-10T05:16:40.873Z,0
2016-12-10T05:17:40.890Z,0
2016-12-10T05:18:40.929Z,0
2016-12-10T05:19:41.551Z,0
2016-12-10T05:20:40.936Z,0
2016-12-10T05:21:41.279Z,0
2016-12-10T05:22:41.626Z,0
2016-12-10T05:23:41.621Z,0
2016-12-10T05:24:41.312Z,0
2016-12-10T05:25:41.024Z,0
2016-12-10T05:26:41.654Z,0
2016-12-10T05:27:41.363Z,0
2016-12-10T05:28:41.063Z,0
2016-12-10T05:29:41.699Z,0
2016-12-10T05:30:41.086Z,0
2016-12-10T05:31:41.438Z,0
2016-12-10T05:32:41.427Z,0
2016-12-10T05:33:41.132Z,0
2016-12-10T05:34:41.781Z,0
2016-12-10T05:35:41.164Z,0
2016-12-10T05:36:41.809Z,0
2016-12-10T05:37:41.508Z,0
2016-12-10T05:38:41.835Z,0
2016-12-10T05:39:41.850Z,0
2016-12-10T05:40:41.862Z,0
2016-12-10T05:41:41.586Z,0
2016-12-10T05:42:41.895Z,0
2016-12-10T05:43:41.588Z,0
2016-12-10T05:44:41.927Z,0
2016-12-10T05:45:41.626Z,0
2016-12-10T05:46:42.271Z,0
2016-12-10T05:47:41.651Z,0
2016-12-10T05:48:41.981Z,0
2016-12-10T05:49:42.006Z,0
2016-12-10T05:50:41.728Z,0
2016-12-10T05:51:41.720Z,0
2016-12-10T05:52:41.098Z,0
2016-12-10T05:53:42.059Z,0
2016-12-10T05:54:42.393Z,0
2016-12-10T05:55:41.462Z,0
2016-12-10T05:56:41.793Z,0
2016-12-10T05:57:41.816Z,0
2016-12-10T05:58:42.450Z,0
2016-12-10T05:59:41.835Z,0
2016-12-10T06:00:41.851Z,0
2016-12-10T06:01:41.865Z,0
2016-12-10T06:02:41.575Z,0
2016-12-10T06:03:41.905Z,0
2016-12-10T06:04:41.280Z,0
2016-12-10T06:05:41.320Z,0
2016-12-10T06:06:42.254Z,0
2016-12-10T06:07:42.278Z,0
2016-12-10T06:08:41.963Z,0
2016-12-10T06:09:42.296Z,0
2016-12-10T06:10:41.678Z,0
2016-12-10T06:11:42.033Z,0
2016-12-10T06:12:42.038Z,0
2016-12-10T06:13:42.352Z,0
2016-12-10T06:14:41.735Z,0
2016-12-10T06:15:42.072Z,0
2016-12-10T06:16:42.395Z,0
2016-12-10T06:17:42.101Z,0
2016-12-10T06:18:42.757Z,0
2016-12-10T06:19:42.761Z,0
2016-12-10T06:20:42.457Z,0
2016-12-10T06:21:42.485Z,0
2016-12-10T06:22:41.557Z,0
2016-12-10T06:23:42.192Z,0
2016-12-10T06:24:42.209Z,0
2016-12-10T06:25:42.219Z,0
2016-12-10T06:26:42.548Z,0
2016-12-10T06:27:42.878Z,0
2016-12-10T06:28:41.951Z,0
2016-12-10T06:29:42.596Z,0
2016-12-10T06:30:41.983Z,0
2016-12-10T06:31:42.000Z,0
2016-12-10T06:32:42.320Z,0
2016-12-10T06:33:42.655Z,0
2016-12-10T06:34:42.673Z,0
2016-12-10T06:35:42.689Z,0
2016-12-10T06:36:42.707Z,0
2016-12-10T06:37:42.111Z,0
2016-12-10T06:38:42.410Z,0
2016-12-10T06:39:42.144Z,0
2016-12-10T06:40:41.811Z,0
2016-12-10T06:41:43.122Z,0
2016-12-10T06:42:41.864Z,0
2016-12-10T06:43:42.496Z,0
2016-12-10T06:44:42.508Z,0
2016-12-10T06:45:42.837Z,0
2016-12-10T06:46:42.530Z,0
2016-12-10T06:47:42.547Z,0
2016-12-10T06:48:42.247Z,0
2016-12-10T06:49:42.894Z,0
2016-12-10T06:50:42.595Z,0
2016-12-10T06:51:42.636Z,0
2016-12-10T06:52:42.942Z,0
2016-12-10T06:53:42.645Z,0
2016-12-10T06:54:42.344Z,0
2016-12-10T06:55:42.712Z,0
2016-12-10T06:56:42.685Z,0
2016-12-10T06:57:42.701Z,0
2016-12-10T06:58:43.036Z,0
2016-12-10T06:59:42.416Z,0
2016-12-10T07:00:42.744Z,0
2016-12-10T07:01:42.765Z,0
2016-12-10T07:02:42.779Z,0
2016-12-10T07:03:43.109Z,0
2016-12-10T07:04:42.828Z,0
2016-12-10T07:05:43.161Z,0
2016-12-10T07:06:43.467Z,0
2016-12-10T07:07:43.169Z,0
2016-12-10T07:08:43.515Z,0
2016-12-10T07:09:43.520Z,5
2016-12-10T07:10:42.585Z,5
2016-12-10T07:11:42.607Z,5
2016-12-10T07:12:42.943Z,5
2016-12-10T07:13:42.948Z,5
2016-12-10T07:14:43.591Z,5
2016-12-10T07:15:42.655Z,5
2016-12-10T07:16:43.370Z,5
2016-12-10T07:17:43.025Z,5
2016-12-10T07:18:43.360Z,5
2016-12-10T07:19:42.721Z,5
2016-12-10T07:20:43.050Z,5
2016-12-10T07:21:43.379Z,5
2016-12-10T07:22:43.396Z,5
2016-12-10T07:23:43.417Z,5
2016-12-10T07:24:43.125Z,10
2016-12-10T07:25:43.144Z,10
2016-12-10T07:26:43.173Z,10
2016-12-10T07:27:42.855Z,10
2016-12-10T07:28:42.860Z,10
2016-12-10T07:29:43.203Z,10
2016-12-10T07:30:43.545Z,10
2016-12-10T07:31:43.250Z,10
2016-12-10T07:32:42.616Z,10
2016-12-10T07:33:42.941Z,10
2016-12-10T07:34:43.264Z,10
2016-12-10T07:35:43.305Z,10
2016-12-10T07:36:43.615Z,10
2016-12-10T07:37:43.629Z,10
2016-12-10T07:38:43.643Z,10
2016-12-10T07:39:43.053Z,10
2016-12-10T07:40:43.392Z,10
2016-12-10T07:41:43.716Z,10
2016-12-10T07:42:43.704Z,10
2016-12-10T07:43:43.720Z,10
2016-12-10T07:44:43.110Z,10
2016-12-10T07:45:43.435Z,10
2016-12-10T07:46:43.450Z,10
2016-12-10T07:47:43.469Z,10
2016-12-10T07:48:43.483Z,10
2016-12-10T07:49:43.520Z,10
2016-12-10T07:50:43.197Z,10
2016-12-10T07:51:43.209Z,10
2016-12-10T07:52:43.540Z,10
2016-12-10T07:53:44.191Z,10
2016-12-10T07:54:43.283Z,10
2016-12-10T07:55:44.229Z,10
2016-12-10T07:56:43.922Z,10
2016-12-10T07:57:43.966Z,10
2016-12-10T07:58:43.638Z,10
2016-12-10T07:59:43.382Z,10
2016-12-10T08:00:43.664Z,10
2016-12-10T08:01:43.989Z,10
2016-12-10T08:02:43.693Z,10
2016-12-10T08:03:43.398Z,10
2016-12-10T08:04:44.044Z,10
2016-12-10T08:05:43.419Z,10
2016-12-10T08:06:43.748Z,10
2016-12-10T08:07:44.082Z,10
2016-12-10T08:08:44.105Z,10
2016-12-10T08:09:43.485Z,15
2016-12-10T08:10:44.134Z,15
2016-12-10T08:11:43.517Z,15
2016-12-10T08:12:43.215Z,15
2016-12-10T08:13:43.546Z,15
2016-12-10T08:14:43.876Z,15
2016-12-10T08:15:43.892Z,15
2016-12-10T08:16:43.277Z,15
2016-12-10T08:17:43.916Z,15
2016-12-10T08:18:43.622Z,15
2016-12-10T08:19:43.640Z,15
2016-12-10T08:20:44.285Z,15
2016-12-10T08:21:43.669Z,15
2016-12-10T08:22:43.694Z,15
2016-12-10T08:23:44.034Z,15
2016-12-10T08:24:44.029Z,15
2016-12-10T08:25:44.052Z,15
2016-12-10T08:26:44.061Z,15
2016-12-10T08:27:43.771Z,15
2016-12-10T08:28:44.096Z,15
2016-12-10T08:29:44.434Z,15
2016-12-10T08:30:43.815Z,15
2016-12-10T08:31:44.143Z,15
2016-12-10T08:32:44.474Z,15
2016-12-10T08:33:44.804Z,15
2016-12-10T08:34:44.191Z,15
2016-12-10T08:35:43.573Z,15
2016-12-10T08:36:44.224Z,15
2016-12-10T08:37:44.236Z,15
2016-12-10T08:38:43.620Z,15
2016-12-10T08:39:44.264Z,15
2016-12-10T08:40:43.974Z,15
2016-12-10T08:41:44.297Z,15
2016-12-10T08:42:44.316Z,15
2016-12-10T08:43:44.654Z,15
2016-12-10T08:44:44.358Z,15
2016-12-10T08:45:44.379Z,15
2016-12-10T08:46:45.019Z,15
2016-12-10T08:47:44.401Z,15
2016-12-10T08:48:44.419Z,15
2016-12-10T08:49:44.436Z,15
2016-12-10T08:50:44.442Z,15
2016-12-10T08:51:44.154Z,15
2016-12-10T08:52:44.472Z,15
2016-12-10T08:53:44.184Z,15
2016-12-10T08:54:44.824Z,15
2016-12-10T08:55:44.523Z,15
2016-12-10T08:56:44.855Z,15
2016-12-10T08:57:44.238Z,15
2016-12-10T08:58:45.202Z,20
2016-12-10T08:59:44.277Z,20
2016-12-10T09:00:44.607Z,20
2016-12-10T09:01:43.989Z,20
2016-12-10T09:02:44.639Z,20
2016-12-10T09:03:44.968Z,20
2016-12-10T09:04:44.038Z,20
2016-12-10T09:05:44.686Z,25
2016-12-10T09:06:44.387Z,25
2016-12-10T09:07:45.040Z,25
2016-12-10T09:08:45.052Z,30
2016-12-10T09:09:45.064Z,35
2016-12-10T09:10:44.449Z,65
2016-12-10T09:11:44.783Z,205
2016-12-10T09:12:44.798Z,360
2016-12-10T09:13:44.819Z,385
2016-12-10T09:14:44.833Z,250
2016-12-10T09:15:45.202Z,145
2016-12-10T09:16:44.553Z,160
2016-12-10T09:17:45.202Z,145
2016-12-10T09:18:44.271Z,220
2016-12-10T09:19:44.938Z,440
2016-12-10T09:20:44.617Z,440
2016-12-10T09:21:44.971Z,235
2016-12-10T09:22:45.604Z,115
2016-12-10T09:23:44.677Z,115
2016-12-10T09:24:45.005Z,305
2016-12-10T09:25:44.724Z,430
2016-12-10T09:26:45.356Z,365
2016-12-10T09:27:44.768Z,325
2016-12-10T09:28:45.728Z,240
2016-12-10T09:29:45.424Z,145
2016-12-10T09:30:45.116Z,105
2016-12-10T09:31:45.464Z,90
2016-12-10T09:32:45.159Z,90
2016-12-10T09:33:44.855Z,125
2016-12-10T09:34:45.511Z,180
2016-12-10T09:35:45.527Z,180
2016-12-10T09:36:45.586Z,130
2016-12-10T09:37:45.262Z,145
2016-12-10T09:38:45.279Z,165
2016-12-10T09:39:45.629Z,200
2016-12-10T09:40:45.021Z,230
2016-12-10T09:41:45.343Z,265
2016-12-10T09:42:45.679Z,295
2016-12-10T09:43:45.701Z,300
2016-12-10T09:44:45.720Z,280
2016-12-10T09:45:45.737Z,280
2016-12-10T09:46:45.131Z,280
2016-12-10T09:47:45.172Z,295
2016-12-10T09:48:45.486Z,310
2016-12-10T09:49:44.874Z,350
2016-12-10T09:50:44.906Z,260
2016-12-10T09:51:45.234Z,150
2016-12-10T09:52:45.576Z,125
2016-12-10T09:53:44.962Z,115
2016-12-10T09:54:45.009Z,105
2016-12-10T09:55:45.028Z,105
2016-12-10T09:56:45.661Z,105
2016-12-10T09:57:45.995Z,120
2016-12-10T09:58:45.708Z,170
2016-12-10T09:59:45.422Z,150
2016-12-10T10:00:45.750Z,115
2016-12-10T10:01:46.118Z,100
2016-12-10T10:02:46.116Z,95
2016-12-10T10:03:45.503Z,90
2016-12-10T10:04:46.160Z,100
2016-12-10T10:05:45.235Z,105
2016-12-10T10:06:45.899Z,110
2016-12-10T10:07:46.246Z,120
2016-12-10T10:08:45.623Z,125
2016-12-10T10:09:45.956Z,125
2016-12-10T10:10:45.982Z,135
2016-12-10T10:11:46.319Z,130
2016-12-10T10:12:46.025Z,125
2016-12-10T10:13:46.047Z,130
2016-12-10T10:14:45.754Z,135
2016-12-10T10:15:46.425Z,135
2016-12-10T10:16:46.119Z,135
2016-12-10T10:17:46.459Z,135
2016-12-10T10:18:46.163Z,125
2016-12-10T10:19:46.821Z,130
2016-12-10T10:20:46.536Z,135
2016-12-10T10:21:46.890Z,140
2016-12-10T10:22:46.273Z,155
2016-12-10T10:23:46.293Z,155
2016-12-10T10:24:46.629Z,155
2016-12-10T10:25:46.014Z,145
2016-12-10T10:26:46.692Z,130
2016-12-10T10:27:46.073Z,145
2016-12-10T10:28:46.400Z,170
2016-12-10T10:29:45.797Z,205
2016-12-10T10:30:46.452Z,210
2016-12-10T10:31:46.158Z,200
2016-12-10T10:32:46.811Z,195
2016-12-10T10:33:46.210Z,200
2016-12-10T10:34:46.547Z,220
2016-12-10T10:35:46.892Z,220
2016-12-10T10:36:46.916Z,220
2016-12-10T10:37:46.310Z,215
2016-12-10T10:38:46.648Z,205
2016-12-10T10:39:46.680Z,215
2016-12-10T10:40:46.063Z,220
2016-12-10T10:41:46.403Z,200
2016-12-10T10:42:46.765Z,160
2016-12-10T10:43:46.468Z,130
2016-12-10T10:44:46.791Z,150
2016-12-10T10:45:46.819Z,165
2016-12-10T10:46:47.158Z,165
2016-12-10T10:47:47.188Z,160
2016-12-10T10:48:46.583Z,155
2016-12-10T10:49:46.599Z,125
2016-12-10T10:50:47.563Z,100
2016-12-10T10:51:47.006Z,95
2016-12-10T10:52:46.676Z,100
2016-12-10T10:53:46.694Z,95
2016-12-10T10:54:46.416Z,85
2016-12-10T10:55:47.694Z,90
2016-12-10T10:56:47.134Z,85
2016-12-10T10:57:47.762Z,80
2016-12-10T10:58:47.145Z,80
2016-12-10T10:59:47.169Z,80
2016-12-10T11:00:47.505Z,80
2016-12-10T11:01:47.527Z,75
2016-12-10T11:02:47.548Z,75
2016-12-10T11:03:47.261Z,70
2016-12-10T11:04:46.966Z,70
2016-12-10T11:05:47.310Z,70
2016-12-10T11:06:47.340Z,70
2016-12-10T11:07:47.670Z,70
2016-12-10T11:08:47.698Z,75
2016-12-10T11:09:47.410Z,75
2016-12-10T11:10:47.110Z,75
2016-12-10T11:11:47.457Z,75
2016-12-10T11:12:47.907Z,75
2016-12-10T11:13:47.188Z,70
2016-12-10T11:14:47.529Z,70
2016-12-10T11:15:47.275Z,75
2016-12-10T11:16:47.903Z,75
2016-12-10T11:17:47.655Z,75
2016-12-10T11:18:48.259Z,75
2016-12-10T11:19:47.967Z,75
2016-12-10T11:20:48.006Z,75
2016-12-10T11:21:47.389Z,75
2016-12-10T11:22:47.433Z,75
2016-12-10T11:23:48.096Z,75
2016-12-10T11:24:47.459Z,75
2016-12-10T11:25:48.117Z,75
2016-12-10T11:26:48.143Z,75
2016-12-10T11:27:48.185Z,75
2016-12-10T11:28:47.875Z,75
2016-12-10T11:29:47.603Z,75
2016-12-10T11:30:47.624Z,75
2016-12-10T11:31:48.274Z,75
2016-12-10T11:32:47.355Z,75
2016-12-10T11:33:48.338Z,75
2016-12-10T11:34:47.714Z,75
2016-12-10T11:35:48.051Z,75
2016-12-10T11:36:47.759Z,75
2016-12-10T11:37:48.417Z,75
2016-12-10T11:38:48.142Z,70
2016-12-10T11:39:48.781Z,70
2016-12-10T11:40:48.830Z,70
2016-12-10T11:41:48.258Z,70
2016-12-10T11:42:47.913Z,70
2016-12-10T11:43:47.937Z,70
2016-12-10T11:44:48.279Z,65
2016-12-10T11:45:47.986Z,65
2016-12-10T11:46:48.644Z,65
2016-12-10T11:47:48.984Z,70
2016-12-10T11:48:48.698Z,70
2016-12-10T11:49:48.419Z,70
2016-12-10T11:50:48.119Z,70
2016-12-10T11:51:48.135Z,70
2016-12-10T11:52:48.474Z,70
2016-12-10T11:53:47.868Z,65
2016-12-10T11:54:48.223Z,65
2016-12-10T11:55:48.241Z,65
2016-12-10T11:56:48.586Z,65
2016-12-10T11:57:48.631Z,65
2016-12-10T11:58:48.636Z,65
2016-12-10T11:59:48.377Z,65
2016-12-10T12:00:48.359Z,65
2016-12-10T12:01:49.016Z,65
2016-12-10T12:02:48.438Z,65
2016-12-10T12:03:48.799Z,65
2016-12-10T12:04:48.813Z,65
2016-12-10T12:05:48.827Z,65
2016-12-10T12:06:48.837Z,65
2016-12-10T12:07:48.542Z,65
2016-12-10T12:08:48.567Z,65
2016-12-10T12:09:48.598Z,65
2016-12-10T12:10:49.277Z,65
2016-12-10T12:11:48.961Z,65
2016-12-10T12:12:49.326Z,65
2016-12-10T12:13:49.012Z,65
2016-12-10T12:14:48.726Z,60
2016-12-10T12:15:48.751Z,60
2016-12-10T12:16:49.110Z,60
2016-12-10T12:17:49.433Z,60
2016-12-10T12:18:49.142Z,60
2016-12-10T12:19:48.896Z,60
2016-12-10T12:20:48.563Z,60
2016-12-10T12:21:48.605Z,60
2016-12-10T12:22:49.557Z,60
2016-12-10T12:23:49.292Z,60
2016-12-10T12:24:49.297Z,70
2016-12-10T12:25:48.688Z,60
2016-12-10T12:26:49.034Z,60
2016-12-10T12:27:49.381Z,65
2016-12-10T12:28:49.402Z,60
2016-12-10T12:29:49.422Z,60
2016-12-10T12:30:48.834Z,60
2016-12-10T12:31:49.473Z,60
2016-12-10T12:32:49.589Z,60
2016-12-10T12:33:49.539Z,60
2016-12-10T12:34:49.872Z,60
2016-12-10T12:35:49.662Z,60
2016-12-10T12:36:49.611Z,60
2016-12-10T12:37:48.995Z,60
2016-12-10T12:38:49.658Z,60
2016-12-10T12:39:49.681Z,60
2016-12-10T12:40:49.095Z,55
2016-12-10T12:41:50.049Z,55
2016-12-10T12:42:49.459Z,55
2016-12-10T12:43:50.133Z,55
2016-12-10T12:44:49.183Z,55
2016-12-10T12:45:49.525Z,55
2016-12-10T12:46:50.206Z,55
2016-12-10T12:47:49.571Z,55
2016-12-10T12:48:49.609Z,55
2016-12-10T12:49:50.254Z,55
2016-12-10T12:50:50.595Z,55
2016-12-10T12:51:50.356Z,55
2016-12-10T12:52:50.109Z,55
2016-12-10T12:53:50.040Z,55
2016-12-10T12:54:50.704Z,55
2016-12-10T12:55:50.099Z,55
2016-12-10T12:56:50.432Z,55
2016-12-10T12:57:49.837Z,55
2016-12-10T12:58:50.498Z,55
2016-12-10T12:59:50.195Z,55
2016-12-10T13:00:50.236Z,55
2016-12-10T13:01:50.254Z,50
2016-12-10T13:02:50.272Z,50
2016-12-10T13:03:49.981Z,50
2016-12-10T13:04:50.333Z,50
2016-12-10T13:05:50.351Z,50
2016-12-10T13:06:50.696Z,50
2016-12-10T13:07:50.087Z,50
2016-12-10T13:08:50.111Z,50
2016-12-10T13:09:50.456Z,50
2016-12-10T13:10:50.789Z,50
2016-12-10T13:11:50.510Z,50
2016-12-10T13:12:50.215Z,50
2016-12-10T13:13:50.595Z,50
2016-12-10T13:14:49.952Z,45
2016-12-10T13:15:50.292Z,45
2016-12-10T13:16:50.637Z,45
2016-12-10T13:17:50.340Z,45
2016-12-10T13:18:50.370Z,40
2016-12-10T13:19:50.430Z,45
2016-12-10T13:20:50.424Z,45
2016-12-10T13:21:50.138Z,45
2016-12-10T13:22:50.490Z,40
2016-12-10T13:23:50.503Z,45
2016-12-10T13:24:50.870Z,45
2016-12-10T13:25:50.550Z,45
2016-12-10T13:26:50.573Z,45
2016-12-10T13:27:50.915Z,45
2016-12-10T13:28:50.622Z,40
2016-12-10T13:29:51.283Z,40
2016-12-10T13:30:51.624Z,40
2016-12-10T13:31:50.404Z,40
2016-12-10T13:32:51.365Z,40
2016-12-10T13:33:51.075Z,40
2016-12-10T13:34:50.782Z,40
2016-12-10T13:35:51.439Z,40
2016-12-10T13:36:51.464Z,40
2016-12-10T13:37:50.855Z,45
2016-12-10T13:38:51.514Z,40
2016-12-10T13:39:51.262Z,40
2016-12-10T13:40:51.882Z,40
2016-12-10T13:41:51.277Z,40
2016-12-10T13:42:51.945Z,40
2016-12-10T13:43:51.647Z,40
2016-12-10T13:44:51.350Z,35
2016-12-10T13:45:51.057Z,35
2016-12-10T13:46:50.771Z,35
2016-12-10T13:47:51.430Z,35
2016-12-10T13:48:51.453Z,35
2016-12-10T13:49:51.797Z,35
2016-12-10T13:50:51.501Z,35
2016-12-10T13:51:51.228Z,35
2016-12-10T13:52:51.237Z,35
2016-12-10T13:53:51.580Z,35
2016-12-10T13:54:51.630Z,35
2016-12-10T13:55:51.946Z,35
2016-12-10T13:56:51.969Z,35
2016-12-10T13:57:51.699Z,35
2016-12-10T13:58:51.388Z,35
2016-12-10T13:59:52.076Z,35
2016-12-10T14:00:51.757Z,35
2016-12-10T14:01:51.780Z,35
2016-12-10T14:02:52.451Z,35
2016-12-10T14:03:51.194Z,35
2016-12-10T14:04:51.857Z,35
2016-12-10T14:05:51.563Z,35
2016-12-10T14:06:52.221Z,35
2016-12-10T14:07:51.941Z,20
2016-12-10T14:08:52.272Z,30
2016-12-10T14:09:51.669Z,30
2016-12-10T14:10:51.377Z,30
2016-12-10T14:11:52.055Z,30
2016-12-10T14:12:51.740Z,30
2016-12-10T14:13:52.458Z,30
2016-12-10T14:14:51.824Z,30
2016-12-10T14:15:52.176Z,25
2016-12-10T14:16:51.859Z,20
2016-12-10T14:17:52.178Z,20
2016-12-10T14:18:52.210Z,15
2016-12-10T14:19:51.596Z,15
2016-12-10T14:20:52.249Z,10
2016-12-10T14:21:51.963Z,10
2016-12-10T14:22:51.984Z,10
2016-12-10T14:23:52.337Z,5
2016-12-10T14:24:52.667Z,5
2016-12-10T14:25:52.056Z,5
2016-12-10T14:26:52.410Z,5
2016-12-10T14:27:52.108Z,5
2016-12-10T14:28:52.452Z,5